Time;durP1;ratioP1;P1;durP2;ratioP2;P2;SDS_P1;SDS_P2;PMS_P1;PMS_P2;Temp;Humidity;BMP_temperature;BMP_pressure;BME280_temperature;BME280_humidity;BME280_pressure;Samples;Min_cycle;Max_cycle;Signal;HPM_P1;HPM_P2
2023/10/29 00:00:48;;;;;;;3.83;3.53;;;11.20;99.90;;;;;;5115735;28;20442;-59
2023/10/29 00:03:15;;;;;;;4.47;4.07;;;11.30;99.90;;;;;;5115888;28;20515;-59
2023/10/29 00:05:41;;;;;;;5.47;3.60;;;11.30;99.90;;;;;;5115489;28;21068;-59
2023/10/29 00:08:09;;;;;;;4.20;3.80;;;11.30;99.90;;;;;;5115459;28;20442;-59
2023/10/29 00:10:35;;;;;;;5.70;3.83;;;11.30;99.90;;;;;;5115376;28;20929;-60
2023/10/29 00:13:04;;;;;;;3.90;3.60;;;11.30;99.90;;;;;;5115653;28;20448;-59
2023/10/29 00:15:31;;;;;;;4.27;3.87;;;11.30;99.90;;;;;;5115475;28;20437;-59
2023/10/29 00:17:58;;;;;;;4.50;3.90;;;11.30;99.90;;;;;;5115338;28;20449;-59
2023/10/29 00:20:24;;;;;;;3.67;3.30;;;11.30;99.90;;;;;;5115203;28;20449;-59
2023/10/29 00:22:51;;;;;;;3.50;3.20;;;11.30;99.90;;;;;;5115299;28;21004;-59
2023/10/29 00:25:18;;;;;;;4.60;3.83;;;11.30;99.90;;;;;;5115256;28;20542;-59
2023/10/29 00:27:45;;;;;;;3.90;3.60;;;11.30;99.90;;;;;;5115471;28;20537;-59
2023/10/29 00:30:13;;;;;;;5.63;3.47;;;11.30;99.90;;;;;;5115199;28;20448;-60
2023/10/29 00:32:39;;;;;;;4.50;3.70;;;11.30;99.90;;;;;;5115062;28;20895;-60
2023/10/29 00:35:07;;;;;;;5.00;4.23;;;11.10;99.90;;;;;;5114869;28;20809;-59
2023/10/29 00:37:33;;;;;;;4.57;3.30;;;11.20;99.90;;;;;;5115113;28;20445;-59
2023/10/29 00:40:00;;;;;;;4.43;3.40;;;11.20;99.90;;;;;;5114954;28;20536;-60
2023/10/29 00:42:26;;;;;;;4.83;3.30;;;11.20;99.90;;;;;;5114937;28;20441;-59
2023/10/29 00:44:53;;;;;;;3.53;3.23;;;11.20;99.90;;;;;;5114815;28;20485;-59
2023/10/29 00:47:20;;;;;;;3.50;3.20;;;11.30;99.90;;;;;;5114753;28;20442;-59
2023/10/29 00:49:48;;;;;;;7.67;3.80;;;11.30;99.90;;;;;;5114465;28;20448;-60
2023/10/29 00:52:14;;;;;;;4.07;3.77;;;11.20;99.90;;;;;;5114823;28;20485;-59
2023/10/29 00:54:42;;;;;;;3.40;3.20;;;11.20;99.90;;;;;;5114751;28;20433;-59
2023/10/29 00:57:09;;;;;;;3.33;3.03;;;11.30;99.90;;;;;;5114678;28;20536;-59
2023/10/29 00:59:35;;;;;;;3.83;3.50;;;11.30;99.90;;;;;;5114534;28;20799;-59
2023/10/29 01:02:02;;;;;;;3.80;3.30;;;11.30;99.90;;;;;;5114637;28;20524;-59
2023/10/29 01:04:30;;;;;;;3.10;2.90;;;11.30;99.90;;;;;;5114538;28;20465;-59
2023/10/29 01:06:57;;;;;;;3.80;3.27;;;11.20;99.90;;;;;;5114501;28;20442;-59
2023/10/29 01:09:24;;;;;;;4.00;3.00;;;11.30;99.90;;;;;;5114422;28;20540;-59
2023/10/29 01:11:50;;;;;;;6.00;4.47;;;11.20;99.90;;;;;;5114318;28;20445;-59
2023/10/29 01:14:17;;;;;;;4.90;3.57;;;11.30;99.90;;;;;;5114202;28;20528;-59
2023/10/29 01:16:43;;;;;;;5.77;3.33;;;11.20;99.90;;;;;;5114091;28;20470;-59
2023/10/29 01:19:10;;;;;;;2.80;2.60;;;11.20;99.90;;;;;;5114377;28;20532;-59
2023/10/29 01:21:38;;;;;;;3.67;3.37;;;11.20;99.90;;;;;;5114156;28;20441;-59
2023/10/29 01:24:05;;;;;;;3.43;2.80;;;11.20;99.90;;;;;;5114148;28;20536;-59
2023/10/29 01:26:32;;;;;;;4.20;3.30;;;11.20;99.90;;;;;;5113862;28;20469;-59
2023/10/29 01:28:59;;;;;;;8.03;3.43;;;11.10;99.90;;;;;;5113935;28;20445;-59
2023/10/29 01:31:25;;;;;;;3.10;2.80;;;11.10;99.90;;;;;;5113904;28;20448;-59
2023/10/29 01:33:51;;;;;;;6.10;3.87;;;11.10;99.90;;;;;;5114091;28;20861;-59
2023/10/29 01:36:18;;;;;;;5.50;3.67;;;11.10;99.90;;;;;;5113969;28;20452;-59
2023/10/29 01:38:46;;;;;;;6.77;3.00;;;11.10;99.90;;;;;;5113873;28;20512;-59
2023/10/29 01:41:13;;;;;;;4.03;3.53;;;11.10;99.90;;;;;;5113876;28;20820;-59
2023/10/29 01:43:39;;;;;;;3.83;3.40;;;11.10;99.90;;;;;;5113509;28;20483;-59
2023/10/29 01:46:06;;;;;;;2.87;2.67;;;11.10;99.90;;;;;;5113570;28;21003;-59
2023/10/29 01:48:33;;;;;;;3.03;2.83;;;11.10;99.90;;;;;;5113875;28;20446;-59
2023/10/29 01:51:04;;;;;;;3.27;2.97;;;11.10;99.90;;;;;;5113777;28;20877;-59
2023/10/29 01:53:30;;;;;;;4.50;3.37;;;11.10;99.90;;;;;;5114083;28;20445;-59
2023/10/29 01:55:58;;;;;;;2.60;2.50;;;11.10;99.90;;;;;;5113509;28;20453;-59
2023/10/29 01:58:25;;;;;;;4.50;3.57;;;11.10;99.90;;;;;;5113414;28;20851;-59
2023/10/29 02:00:55;;;;;;;4.80;3.00;;;11.10;99.90;;;;;;5113175;28;20809;-59
2023/10/29 02:03:21;;;;;;;3.00;2.70;;;11.10;99.90;;;;;;5113631;28;20805;-59
2023/10/29 02:05:48;;;;;;;2.73;2.50;;;11.10;99.90;;;;;;5113497;28;20482;-59
2023/10/29 02:08:14;;;;;;;3.50;2.53;;;11.10;99.90;;;;;;5113437;28;20533;-59
2023/10/29 02:10:41;;;;;;;2.77;2.60;;;11.10;99.90;;;;;;5113398;28;20446;-59
2023/10/29 02:13:08;;;;;;;2.80;2.33;;;11.10;99.90;;;;;;5113360;28;20441;-59
2023/10/29 02:15:35;;;;;;;2.93;2.20;;;11.10;99.90;;;;;;5113515;28;20452;-59
2023/10/29 02:18:01;;;;;;;3.10;2.53;;;11.10;99.90;;;;;;5113478;28;20944;-59
2023/10/29 02:20:28;;;;;;;2.63;2.20;;;11.10;99.90;;;;;;5113213;28;20450;-59
2023/10/29 02:22:56;;;;;;;3.47;1.80;;;11.20;99.90;;;;;;5113603;28;20442;-59
2023/10/29 02:25:22;;;;;;;3.10;2.40;;;11.20;99.90;;;;;;5113169;28;20476;-60
2023/10/29 02:27:48;;;;;;;4.60;1.77;;;11.10;99.90;;;;;;5113411;28;20448;-59
2023/10/29 02:30:15;;;;;;;2.87;1.60;;;11.00;99.90;;;;;;5113397;28;20441;-59
2023/10/29 02:32:42;;;;;;;6.03;2.20;;;11.00;99.90;;;;;;5113309;28;20441;-59
2023/10/29 02:35:08;;;;;;;2.30;1.63;;;11.00;99.90;;;;;;5113283;28;20445;-59
2023/10/29 02:37:35;;;;;;;2.50;2.30;;;10.90;99.90;;;;;;5113246;28;20465;-59
2023/10/29 02:40:03;;;;;;;2.33;2.00;;;10.90;99.90;;;;;;5113158;28;20778;-59
2023/10/29 02:42:30;;;;;;;2.67;2.17;;;10.90;99.90;;;;;;5113364;28;20445;-59
2023/10/29 02:44:58;;;;;;;1.87;1.50;;;10.90;99.90;;;;;;5112877;28;20538;-59
2023/10/29 02:47:25;;;;;;;3.40;1.80;;;11.00;99.90;;;;;;5113213;28;20445;-59
2023/10/29 02:49:51;;;;;;;4.10;1.70;;;11.00;99.90;;;;;;5113157;28;20459;-59
2023/10/29 02:52:18;;;;;;;2.50;2.00;;;11.00;99.90;;;;;;5113104;28;20537;-59
2023/10/29 02:54:44;;;;;;;1.93;1.83;;;11.10;99.90;;;;;;5112998;28;20442;-59
2023/10/29 02:57:13;;;;;;;5.00;2.10;;;11.10;99.90;;;;;;5113156;28;20540;-59
2023/10/29 02:59:39;;;;;;;2.07;1.77;;;11.10;99.90;;;;;;5113149;28;20502;-59
2023/10/29 03:02:06;;;;;;;4.60;1.90;;;11.20;99.90;;;;;;5113029;28;20441;-59
2023/10/29 03:04:33;;;;;;;1.83;1.60;;;11.00;99.90;;;;;;5113008;28;20442;-59
2023/10/29 03:07:00;;;;;;;1.70;1.47;;;11.00;99.90;;;;;;5112853;28;20581;-59
2023/10/29 03:09:26;;;;;;;2.40;1.53;;;11.10;99.90;;;;;;5113073;28;20552;-59
2023/10/29 03:11:53;;;;;;;2.33;2.13;;;11.20;99.90;;;;;;5114043;28;20959;-59
2023/10/29 03:14:21;;;;;;;3.60;1.70;;;11.20;99.90;;;;;;5116716;28;20872;-59
2023/10/29 03:16:47;;;;;;;2.20;1.60;;;11.20;99.90;;;;;;5116697;28;20449;-59
2023/10/29 03:19:14;;;;;;;1.93;1.63;;;11.20;99.90;;;;;;5116563;28;20524;-59
2023/10/29 03:21:40;;;;;;;3.20;1.70;;;11.20;99.90;;;;;;5116413;28;20532;-59
2023/10/29 03:24:07;;;;;;;3.47;2.37;;;11.20;99.90;;;;;;5116610;28;20480;-59
2023/10/29 03:26:33;;;;;;;4.03;1.70;;;11.10;99.90;;;;;;5116388;28;20481;-59
2023/10/29 03:29:00;;;;;;;2.63;1.90;;;11.10;99.90;;;;;;5116484;28;20532;-59
2023/10/29 03:31:28;;;;;;;2.50;1.53;;;11.00;99.90;;;;;;5116316;28;20452;-59
2023/10/29 03:33:54;;;;;;;3.90;2.00;;;11.10;99.90;;;;;;5116243;28;20430;-59
2023/10/29 03:36:21;;;;;;;6.73;1.83;;;11.10;99.90;;;;;;5116111;28;20442;-59
2023/10/29 03:38:47;;;;;;;3.37;1.90;;;11.10;99.90;;;;;;5116270;28;20528;-59
2023/10/29 03:41:21;;;;;;;3.03;1.47;;;11.10;99.90;;;;;;5116183;28;20437;-59
2023/10/29 03:43:47;;;;;;;2.60;1.27;;;11.20;99.90;;;;;;5115959;28;20444;-59
2023/10/29 03:46:14;;;;;;;2.97;2.30;;;11.20;99.90;;;;;;5116021;28;20984;-59
2023/10/29 03:48:44;;;;;;;3.23;1.63;;;11.20;99.90;;;;;;5115875;28;20537;-59
2023/10/29 03:51:11;;;;;;;3.87;1.90;;;11.10;99.90;;;;;;5116094;28;20437;-59
2023/10/29 03:53:38;;;;;;;2.03;1.83;;;11.10;99.90;;;;;;5115984;28;20540;-59
2023/10/29 03:56:04;;;;;;;2.47;1.73;;;11.10;99.90;;;;;;5116012;28;20544;-59
2023/10/29 03:58:31;;;;;;;2.83;1.80;;;10.90;99.90;;;;;;5115818;28;20438;-59
2023/10/29 04:00:57;;;;;;;7.13;2.47;;;10.90;99.90;;;;;;5115737;28;20796;-59
2023/10/29 04:03:24;;;;;;;3.73;1.80;;;10.90;99.90;;;;;;5115572;28;20441;-59
2023/10/29 04:05:52;;;;;;;2.30;1.47;;;10.90;99.90;;;;;;5115460;28;20473;-59
2023/10/29 04:08:18;;;;;;;2.87;1.83;;;11.00;99.90;;;;;;5115458;28;20936;-59
2023/10/29 04:10:45;;;;;;;2.17;1.40;;;11.00;99.90;;;;;;5115618;28;20872;-59
2023/10/29 04:13:11;;;;;;;4.20;2.17;;;11.00;99.90;;;;;;5115483;28;20437;-59
2023/10/29 04:15:38;;;;;;;1.67;1.57;;;11.00;99.90;;;;;;5115415;28;20474;-59
2023/10/29 04:18:04;;;;;;;2.03;1.83;;;11.00;99.90;;;;;;5115318;28;20442;-59
2023/10/29 04:20:31;;;;;;;3.80;2.20;;;11.00;99.90;;;;;;5115737;28;20445;-59
2023/10/29 04:22:58;;;;;;;3.63;2.13;;;10.90;99.90;;;;;;5115208;28;20499;-59
2023/10/29 04:25:25;;;;;;;2.93;2.23;;;10.90;99.90;;;;;;5115319;28;20544;-60
2023/10/29 04:27:51;;;;;;;4.80;2.93;;;11.00;99.90;;;;;;5115294;28;20537;-59
2023/10/29 04:30:18;;;;;;;2.33;2.10;;;11.00;99.90;;;;;;5115324;28;20533;-59
2023/10/29 04:32:44;;;;;;;2.43;1.67;;;11.10;99.90;;;;;;5115179;28;20991;-59
2023/10/29 04:35:11;;;;;;;4.00;1.73;;;11.10;99.90;;;;;;5115234;28;20536;-59
2023/10/29 04:37:37;;;;;;;2.37;1.53;;;11.10;99.90;;;;;;5115146;27;20529;-59
2023/10/29 04:40:07;;;;;;;4.00;2.07;;;11.10;99.90;;;;;;5115032;28;20441;-59
2023/10/29 04:42:33;;;;;;;3.93;1.80;;;11.10;99.90;;;;;;5114933;28;20446;-59
2023/10/29 04:45:00;;;;;;;3.53;2.30;;;11.20;99.90;;;;;;5114604;28;20469;-59
2023/10/29 04:47:26;;;;;;;6.30;2.10;;;11.20;99.90;;;;;;5114931;28;20515;-59
2023/10/29 04:49:53;;;;;;;1.50;1.40;;;11.20;99.90;;;;;;5114895;28;20441;-59
2023/10/29 04:52:19;;;;;;;4.17;2.60;;;11.10;99.90;;;;;;5114819;28;20441;-59
2023/10/29 04:54:46;;;;;;;1.90;1.30;;;11.10;99.90;;;;;;5114715;28;20442;-60
2023/10/29 04:57:14;;;;;;;4.07;2.20;;;11.10;99.90;;;;;;5114642;28;20450;-59
2023/10/29 04:59:40;;;;;;;2.37;1.90;;;11.10;99.90;;;;;;5114423;28;20545;-59
2023/10/29 05:02:07;;;;;;;1.50;1.40;;;11.10;99.90;;;;;;5114678;28;20448;-59
2023/10/29 05:04:33;;;;;;;3.03;1.93;;;11.00;99.90;;;;;;5114624;28;20448;-59
2023/10/29 05:06:59;;;;;;;3.50;1.87;;;11.10;99.90;;;;;;5114364;28;20481;-60
2023/10/29 05:09:26;;;;;;;2.83;2.00;;;11.10;99.90;;;;;;5114388;28;20536;-59
2023/10/29 05:11:52;;;;;;;2.67;1.70;;;11.10;99.90;;;;;;5114309;28;20442;-59
2023/10/29 05:14:20;;;;;;;3.87;2.07;;;11.10;99.90;;;;;;5114439;28;20449;-59
2023/10/29 05:16:47;;;;;;;2.43;2.20;;;11.10;99.90;;;;;;5114363;28;20533;-59
2023/10/29 05:19:14;;;;;;;5.80;2.33;;;11.10;99.90;;;;;;5114322;28;20470;-59
2023/10/29 05:21:40;;;;;;;4.33;1.90;;;11.10;99.90;;;;;;5114225;28;20441;-59
2023/10/29 05:24:08;;;;;;;2.10;1.90;;;11.10;99.90;;;;;;5114113;28;20537;-59
2023/10/29 05:26:36;;;;;;;3.63;1.87;;;11.20;99.90;;;;;;5113961;28;20487;-59
2023/10/29 05:29:03;;;;;;;1.70;1.60;;;11.10;99.90;;;;;;5114236;28;20495;-59
2023/10/29 05:31:31;;;;;;;8.10;3.20;;;11.10;99.90;;;;;;5114074;28;20877;-59
2023/10/29 05:33:57;;;;;;;1.63;1.53;;;11.20;99.90;;;;;;5114079;28;20796;-59
2023/10/29 05:36:24;;;;;;;2.43;2.00;;;11.20;99.90;;;;;;5113072;28;20850;-59
2023/10/29 05:38:50;;;;;;;2.90;2.03;;;11.20;99.90;;;;;;5113937;28;20866;-59
2023/10/29 05:41:18;;;;;;;4.40;2.23;;;11.30;99.90;;;;;;5113676;28;20441;-59
2023/10/29 05:43:44;;;;;;;2.47;1.97;;;11.30;99.90;;;;;;5113836;28;20448;-59
2023/10/29 05:46:12;;;;;;;3.63;1.70;;;11.30;99.90;;;;;;5113773;28;20909;-59
2023/10/29 05:48:40;;;;;;;2.10;1.90;;;11.40;99.90;;;;;;5113720;28;20479;-59
2023/10/29 05:51:09;;;;;;;2.53;1.87;;;11.30;99.90;;;;;;5113716;28;20473;-59
2023/10/29 05:53:35;;;;;;;4.50;2.07;;;11.40;99.90;;;;;;5113630;28;20494;-59
2023/10/29 05:56:04;;;;;;;3.60;1.90;;;11.30;99.90;;;;;;5113477;28;20452;-59
2023/10/29 05:58:30;;;;;;;2.53;2.10;;;11.40;99.90;;;;;;5113782;28;20457;-59
2023/10/29 06:00:57;;;;;;;3.67;1.80;;;11.40;99.90;;;;;;5113656;28;20485;-59
2023/10/29 06:03:24;;;;;;;1.70;1.60;;;11.40;99.90;;;;;;5113579;28;20445;-59
2023/10/29 06:05:52;;;;;;;3.37;1.97;;;11.40;99.90;;;;;;5113435;28;20442;-59
2023/10/29 06:08:19;;;;;;;2.50;2.07;;;11.40;99.90;;;;;;5113428;28;20448;-59
2023/10/29 06:10:45;;;;;;;2.93;2.10;;;11.30;99.90;;;;;;5113659;28;20871;-59
2023/10/29 06:13:12;;;;;;;7.00;2.40;;;11.30;99.90;;;;;;5113544;28;20623;-59
2023/10/29 06:15:38;;;;;;;3.40;2.20;;;11.20;99.90;;;;;;5113447;28;20449;-59
2023/10/29 06:18:06;;;;;;;2.87;2.03;;;11.20;99.90;;;;;;5113440;28;20540;-59
2023/10/29 06:20:32;;;;;;;2.90;1.80;;;11.20;99.90;;;;;;5113401;28;20528;-59
2023/10/29 06:23:00;;;;;;;2.43;1.90;;;11.30;99.90;;;;;;5113295;28;20532;-59
2023/10/29 06:25:27;;;;;;;2.73;2.53;;;11.30;99.90;;;;;;5113399;28;20449;-59
2023/10/29 06:27:53;;;;;;;2.40;2.07;;;11.30;99.90;;;;;;5113314;28;20484;-59
2023/10/29 06:30:20;;;;;;;4.33;2.50;;;11.40;99.90;;;;;;5113294;28;20441;-59
2023/10/29 06:32:46;;;;;;;5.47;1.93;;;11.40;99.90;;;;;;5113252;28;20880;-59
2023/10/29 06:35:13;;;;;;;4.00;2.10;;;11.40;99.90;;;;;;5113260;28;20442;-59
2023/10/29 06:37:40;;;;;;;2.00;1.50;;;11.30;99.90;;;;;;5113237;28;20782;-59
2023/10/29 06:40:09;;;;;;;1.60;1.50;;;11.30;99.90;;;;;;5113181;28;20984;-59
2023/10/29 06:42:37;;;;;;;2.67;1.97;;;11.30;99.90;;;;;;5113038;28;20970;-59
2023/10/29 06:45:05;;;;;;;6.40;2.97;;;11.40;99.90;;;;;;5113025;28;20805;-59
2023/10/29 06:47:32;;;;;;;4.63;2.17;;;11.30;99.90;;;;;;5115404;28;20492;-59
2023/10/29 06:49:58;;;;;;;8.13;2.37;;;11.40;99.90;;;;;;5116996;28;20532;-59
2023/10/29 06:52:25;;;;;;;3.00;2.07;;;11.50;99.90;;;;;;5117114;28;20447;-59
2023/10/29 06:54:51;;;;;;;2.60;2.40;;;11.50;99.90;;;;;;5117124;28;20479;-59
2023/10/29 06:57:20;;;;;;;4.57;1.97;;;11.50;99.90;;;;;;5117076;28;20447;-59
2023/10/29 06:59:46;;;;;;;5.23;2.07;;;11.50;99.90;;;;;;5116892;28;20488;-61
2023/10/29 07:02:12;;;;;;;3.77;1.90;;;11.50;99.90;;;;;;5116849;28;20448;-59
2023/10/29 07:04:39;;;;;;;2.60;2.40;;;11.50;99.90;;;;;;5116809;28;20953;-60
2023/10/29 07:07:05;;;;;;;2.90;2.03;;;11.60;99.90;;;;;;5116823;28;20480;-60
2023/10/29 07:09:32;;;;;;;7.20;2.77;;;11.50;99.90;;;;;;5116808;28;20460;-59
2023/10/29 07:11:58;;;;;;;7.53;2.47;;;11.50;99.90;;;;;;5116726;28;20452;-59
2023/10/29 07:14:26;;;;;;;2.03;1.90;;;11.50;99.90;;;;;;5116644;28;20452;-59
2023/10/29 07:16:53;;;;;;;3.20;2.53;;;11.60;99.90;;;;;;5116539;28;20537;-59
2023/10/29 07:19:19;;;;;;;2.07;1.80;;;11.60;99.90;;;;;;5116411;28;20528;-59
2023/10/29 07:21:46;;;;;;;1.90;1.80;;;11.70;99.90;;;;;;5116617;28;20448;-59
2023/10/29 07:24:12;;;;;;;3.80;2.07;;;11.70;99.90;;;;;;5116535;28;20514;-59
2023/10/29 07:26:40;;;;;;;5.17;2.77;;;11.70;99.90;;;;;;5116679;28;20544;-59
2023/10/29 07:29:07;;;;;;;2.70;2.10;;;11.70;99.90;;;;;;5116362;28;20441;-59
2023/10/29 07:31:35;;;;;;;3.07;1.60;;;11.80;99.90;;;;;;5116214;28;20498;-59
2023/10/29 07:34:02;;;;;;;2.73;2.33;;;11.80;99.90;;;;;;5116890;28;20536;-59
2023/10/29 07:36:28;;;;;;;2.00;1.80;;;11.70;99.90;;;;;;5116326;28;20457;-59
2023/10/29 07:38:55;;;;;;;2.97;2.40;;;11.70;99.90;;;;;;5116265;28;20809;-59
2023/10/29 07:41:22;;;;;;;2.30;2.10;;;11.70;99.90;;;;;;5116130;28;20537;-59
2023/10/29 07:43:49;;;;;;;2.10;1.83;;;11.80;99.90;;;;;;5115839;28;20936;-59
2023/10/29 07:46:15;;;;;;;3.13;2.10;;;11.80;99.90;;;;;;5115960;28;20452;-59
2023/10/29 07:48:43;;;;;;;2.37;2.17;;;11.80;99.90;;;;;;5116104;28;20456;-59
2023/10/29 07:51:10;;;;;;;7.40;2.50;;;11.80;99.90;;;;;;5116027;28;20447;-59
2023/10/29 07:53:37;;;;;;;7.00;2.83;;;11.70;99.90;;;;;;5115943;28;20524;-59
2023/10/29 07:56:07;;;;;;;5.53;2.10;;;11.80;99.90;;;;;;5115877;28;20876;-59
2023/10/29 07:58:34;;;;;;;3.13;2.30;;;11.90;99.90;;;;;;5114801;28;20449;-59
2023/10/29 08:01:00;;;;;;;3.10;2.70;;;11.90;99.90;;;;;;5115970;28;20529;-59
2023/10/29 08:03:27;;;;;;;3.57;2.40;;;11.90;99.90;;;;;;5115814;28;20442;-59
2023/10/29 08:05:55;;;;;;;4.80;1.70;;;11.90;99.90;;;;;;5115743;28;20446;-59
2023/10/29 08:08:21;;;;;;;5.40;2.40;;;12.00;99.90;;;;;;5115563;28;20488;-59
2023/10/29 08:10:47;;;;;;;3.00;2.30;;;12.00;99.90;;;;;;5115584;28;20514;-59
2023/10/29 08:13:14;;;;;;;2.13;1.93;;;11.90;99.90;;;;;;5115366;28;20526;-59
2023/10/29 08:15:40;;;;;;;3.23;2.00;;;12.00;99.90;;;;;;5115682;28;20532;-59
2023/10/29 08:18:07;;;;;;;4.23;2.70;;;12.00;99.90;;;;;;5115471;28;20444;-59
2023/10/29 08:20:34;;;;;;;5.87;2.43;;;12.00;99.90;;;;;;5115501;28;20540;-60
2023/10/29 08:23:01;;;;;;;6.30;2.53;;;12.00;99.90;;;;;;5115330;28;20448;-59
2023/10/29 08:25:28;;;;;;;4.63;2.10;;;12.00;99.90;;;;;;5115324;28;20446;-59
2023/10/29 08:27:54;;;;;;;2.70;2.03;;;11.90;99.90;;;;;;5115048;28;20573;-59
2023/10/29 08:30:21;;;;;;;2.90;2.20;;;11.90;99.90;;;;;;5115302;28;20477;-59
2023/10/29 08:32:47;;;;;;;13.33;2.70;;;11.80;99.90;;;;;;5115267;28;20532;-59
2023/10/29 08:35:14;;;;;;;2.27;2.07;;;11.90;99.90;;;;;;5115384;28;20441;-59
2023/10/29 08:37:40;;;;;;;5.13;2.37;;;11.90;99.90;;;;;;5115018;28;20537;-59
2023/10/29 08:40:09;;;;;;;6.17;2.50;;;11.90;99.90;;;;;;5115047;28;20445;-60
2023/10/29 08:42:36;;;;;;;2.77;2.00;;;11.90;99.90;;;;;;5114829;28;20525;-59
2023/10/29 08:45:03;;;;;;;2.70;1.70;;;11.90;99.90;;;;;;5114719;28;20470;-59
2023/10/29 08:47:31;;;;;;;5.70;2.07;;;11.90;99.90;;;;;;5114799;28;20469;-60
2023/10/29 08:49:58;;;;;;;3.10;2.20;;;12.00;99.90;;;;;;5114718;28;20924;-60
2023/10/29 08:52:25;;;;;;;6.00;2.30;;;12.00;99.90;;;;;;5114823;28;20532;-59
2023/10/29 08:54:51;;;;;;;2.33;2.13;;;12.10;99.90;;;;;;5114642;28;20441;-59
2023/10/29 08:57:19;;;;;;;4.80;2.57;;;12.10;99.90;;;;;;5114576;28;20532;-59
2023/10/29 08:59:46;;;;;;;2.17;1.97;;;12.20;99.90;;;;;;5114670;28;20473;-60
2023/10/29 09:02:12;;;;;;;2.73;1.90;;;12.20;99.90;;;;;;5114750;28;20446;-59
2023/10/29 09:04:39;;;;;;;4.50;2.53;;;12.10;99.90;;;;;;5114496;28;20528;-59
2023/10/29 09:07:07;;;;;;;5.90;2.30;;;12.10;99.90;;;;;;5114295;28;20963;-59
2023/10/29 09:09:35;;;;;;;2.10;1.90;;;12.10;99.90;;;;;;5114774;28;20448;-59
2023/10/29 09:12:02;;;;;;;3.80;2.33;;;12.20;99.90;;;;;;5114427;28;20528;-59
2023/10/29 09:14:29;;;;;;;4.37;2.27;;;12.30;99.90;;;;;;5114358;28;20549;-59
2023/10/29 09:16:56;;;;;;;3.83;2.40;;;12.30;99.90;;;;;;5114308;28;20441;-59
2023/10/29 09:19:22;;;;;;;5.13;2.10;;;12.40;99.90;;;;;;5114267;28;20443;-59
2023/10/29 09:21:51;;;;;;;2.63;1.83;;;12.40;99.90;;;;;;5114346;28;20528;-59
2023/10/29 09:24:17;;;;;;;4.17;2.30;;;12.50;99.90;;;;;;5114021;28;20437;-60
2023/10/29 09:26:44;;;;;;;6.07;2.80;;;12.50;99.90;;;;;;5114162;28;20537;-59
2023/10/29 09:29:10;;;;;;;4.00;2.67;;;12.60;99.90;;;;;;5114201;28;20442;-59
2023/10/29 09:31:38;;;;;;;2.70;2.03;;;12.60;99.90;;;;;;5114094;28;20854;-59
2023/10/29 09:34:05;;;;;;;4.77;2.90;;;12.70;99.90;;;;;;5113899;28;20882;-59
2023/10/29 09:36:31;;;;;;;4.60;2.70;;;12.80;99.90;;;;;;5113929;28;20479;-59
2023/10/29 09:38:58;;;;;;;1.80;1.57;;;12.90;99.90;;;;;;5113892;28;20446;-60
2023/10/29 09:41:24;;;;;;;1.90;1.77;;;13.00;99.90;;;;;;5114103;28;20469;-59
2023/10/29 09:43:53;;;;;;;5.73;2.00;;;13.00;99.90;;;;;;5113784;28;20479;-59
2023/10/29 09:46:21;;;;;;;2.90;2.10;;;13.10;99.90;;;;;;5113927;28;20524;-59
2023/10/29 09:48:50;;;;;;;2.03;1.83;;;13.20;99.90;;;;;;5113672;28;20478;-60
2023/10/29 09:51:17;;;;;;;2.27;2.00;;;13.10;99.90;;;;;;5113762;28;20445;-60
2023/10/29 09:53:44;;;;;;;3.53;2.10;;;13.20;99.90;;;;;;5113779;28;20528;-59
2023/10/29 09:56:12;;;;;;;2.63;2.43;;;13.20;99.90;;;;;;5113639;28;20537;-60
2023/10/29 09:58:39;;;;;;;2.40;1.63;;;13.20;99.90;;;;;;5113643;28;20441;-59
2023/10/29 10:01:06;;;;;;;3.73;2.00;;;13.20;99.90;;;;;;5113546;28;20446;-59
2023/10/29 10:03:33;;;;;;;6.80;2.63;;;13.30;99.90;;;;;;5113472;28;20532;-60
2023/10/29 10:06:01;;;;;;;3.33;2.40;;;13.30;99.90;;;;;;5113586;28;20540;-60
2023/10/29 10:08:29;;;;;;;2.77;1.63;;;13.30;99.90;;;;;;5113432;28;20481;-59
2023/10/29 10:10:56;;;;;;;2.20;1.70;;;13.30;99.90;;;;;;5113739;28;20445;-60
2023/10/29 10:13:37;;;;;;;2.10;1.90;;;13.30;99.90;;;;;;5113475;28;20531;-60
2023/10/29 10:16:07;;;;;;;2.97;1.77;;;13.30;99.90;;;;;;5113666;28;20484;-60
2023/10/29 10:18:51;;;;;;;3.73;2.13;;;13.20;99.90;;;;;;5113494;28;20447;-60
2023/10/29 10:21:20;;;;;;;2.57;1.90;;;13.30;99.90;;;;;;5113807;28;20453;-60
2023/10/29 10:23:48;;;;;;;7.53;1.90;;;13.30;99.90;;;;;;5117608;28;20456;-59
2023/10/29 10:26:18;;;;;;;2.30;1.63;;;13.30;99.90;;;;;;5117550;28;20441;-59
2023/10/29 10:28:53;;;;;;;2.07;1.50;;;13.20;99.90;;;;;;5117423;28;20477;-59
2023/10/29 10:31:20;;;;;;;4.60;1.50;;;13.20;99.90;;;;;;5117637;28;20449;-60
2023/10/29 10:33:47;;;;;;;2.83;2.10;;;13.20;99.90;;;;;;5117433;28;20528;-60
2023/10/29 10:36:13;;;;;;;2.70;2.00;;;13.30;99.90;;;;;;5117306;28;20441;-60
2023/10/29 10:38:52;;;;;;;4.03;2.20;;;13.20;99.90;;;;;;5117279;28;20868;-60
2023/10/29 10:41:18;;;;;;;3.37;2.33;;;13.10;99.90;;;;;;5117119;28;20835;-59
2023/10/29 10:43:45;;;;;;;2.60;1.93;;;13.20;99.90;;;;;;5117134;28;20456;-60
2023/10/29 10:46:13;;;;;;;2.13;1.97;;;13.30;99.90;;;;;;5117125;28;20545;-60
2023/10/29 10:48:41;;;;;;;2.60;2.13;;;13.40;99.90;;;;;;5116941;28;20481;-60
2023/10/29 10:51:11;;;;;;;2.77;2.53;;;13.50;99.90;;;;;;5117046;28;20808;-60
2023/10/29 10:53:39;;;;;;;3.13;2.30;;;13.50;99.90;;;;;;5116960;28;20449;-59
2023/10/29 10:56:09;;;;;;;2.40;2.00;;;13.50;99.90;;;;;;5116884;28;20549;-60
2023/10/29 10:58:37;;;;;;;2.93;1.93;;;13.40;99.90;;;;;;5116898;28;20804;-60
2023/10/29 11:01:04;;;;;;;2.60;2.03;;;13.40;99.90;;;;;;5117215;28;20441;-60
2023/10/29 11:03:32;;;;;;;4.07;1.70;;;13.50;99.90;;;;;;5116881;28;20805;-59
2023/10/29 11:05:59;;;;;;;2.43;1.83;;;13.40;99.90;;;;;;5116736;28;20446;-59
2023/10/29 11:08:26;;;;;;;8.20;2.03;;;13.50;99.90;;;;;;5116576;28;20477;-59
2023/10/29 11:10:53;;;;;;;2.30;1.63;;;13.50;99.90;;;;;;5116858;28;20479;-59
2023/10/29 11:13:21;;;;;;;2.70;1.87;;;13.60;99.90;;;;;;5116951;28;20442;-59
2023/10/29 11:15:49;;;;;;;10.33;2.30;;;13.70;99.90;;;;;;5116684;28;21001;-60
2023/10/29 11:18:26;;;;;;;1.90;1.80;;;13.70;99.90;;;;;;5116555;28;20992;-59
2023/10/29 11:20:53;;;;;;;1.60;1.50;;;13.80;99.90;;;;;;5116417;28;20532;-59
2023/10/29 11:23:25;;;;;;;1.53;1.40;;;13.80;99.90;;;;;;5116676;28;20805;-59
2023/10/29 11:26:11;;;;;;;3.27;1.90;;;13.90;99.90;;;;;;5116571;28;21012;-59
2023/10/29 11:28:45;;;;;;;3.67;2.30;;;13.90;99.90;;;;;;5116177;28;20572;-60
2023/10/29 11:31:13;;;;;;;3.97;1.90;;;13.90;99.90;;;;;;5116162;28;20450;-60
2023/10/29 11:33:40;;;;;;;3.77;1.30;;;14.10;99.90;;;;;;5114990;28;20557;-60
2023/10/29 11:36:29;;;;;;;3.20;1.80;;;14.30;99.90;;;;;;5116220;28;20547;-59
2023/10/29 11:39:34;;;;;;;2.87;1.33;;;14.40;99.90;;;;;;5116173;28;20444;-60
2023/10/29 11:42:00;;;;;;;2.93;1.43;;;14.60;99.90;;;;;;5116101;28;20441;-60
2023/10/29 11:44:29;;;;;;;3.10;1.50;;;14.70;99.90;;;;;;5115667;28;20511;-62
2023/10/29 11:47:06;;;;;;;1.33;1.23;;;14.80;99.90;;;;;;5116095;28;20438;-60
2023/10/29 11:50:06;;;;;;;3.80;1.60;;;14.90;99.90;;;;;;5115983;28;20481;-59
2023/10/29 11:52:42;;;;;;;2.60;1.50;;;14.90;99.90;;;;;;5116073;28;20552;-59
2023/10/29 11:55:10;;;;;;;2.47;1.47;;;15.00;99.90;;;;;;5116072;28;20804;-60
2023/10/29 11:57:39;;;;;;;2.33;1.30;;;15.00;99.90;;;;;;5115860;28;20529;-60
2023/10/29 12:00:09;;;;;;;3.43;1.40;;;14.90;99.90;;;;;;5115771;28;20449;-59
2023/10/29 12:02:36;;;;;;;1.73;1.33;;;14.90;99.90;;;;;;5115696;28;20441;-60
2023/10/29 12:05:09;;;;;;;3.00;1.67;;;14.90;99.90;;;;;;5115649;28;20445;-59
2023/10/29 12:07:36;;;;;;;2.93;1.40;;;14.80;99.90;;;;;;5115620;28;20532;-60
2023/10/29 12:10:03;;;;;;;1.60;1.50;;;14.90;99.90;;;;;;5115604;28;20456;-60
2023/10/29 12:12:29;;;;;;;5.07;1.80;;;14.90;99.90;;;;;;5115460;28;20532;-60
2023/10/29 12:14:55;;;;;;;2.80;1.80;;;14.90;99.90;;;;;;5115397;28;20448;-60
2023/10/29 12:17:23;;;;;;;1.30;1.20;;;14.90;99.90;;;;;;5115476;28;20441;-59
2023/10/29 12:19:50;;;;;;;4.30;4.00;;;15.00;99.90;;;;;;5115218;28;20940;-59
2023/10/29 12:22:18;;;;;;;1.53;1.43;;;15.00;99.90;;;;;;5115397;28;20533;-60
2023/10/29 12:24:45;;;;;;;1.23;1.13;;;15.00;99.90;;;;;;5115225;28;20438;-59
2023/10/29 12:27:13;;;;;;;1.53;1.40;;;15.00;99.90;;;;;;5115176;28;20532;-60
2023/10/29 12:29:40;;;;;;;1.70;1.50;;;15.00;99.90;;;;;;5114948;28;20482;-60
2023/10/29 12:32:15;;;;;;;1.70;1.17;;;15.10;99.90;;;;;;5115323;28;20441;-60
2023/10/29 12:34:53;;;;;;;2.30;1.40;;;15.10;99.90;;;;;;5115094;28;20532;-60
2023/10/29 12:37:25;;;;;;;3.30;1.77;;;15.00;99.90;;;;;;5115065;28;20528;-59
2023/10/29 12:39:54;;;;;;;2.00;1.73;;;15.10;99.90;;;;;;5114976;28;20857;-60
2023/10/29 12:42:22;;;;;;;1.50;1.40;;;15.00;99.90;;;;;;5114809;28;20533;-59
2023/10/29 12:44:55;;;;;;;1.67;1.43;;;15.10;99.90;;;;;;5114366;28;20469;-60
2023/10/29 12:47:22;;;;;;;3.97;1.40;;;15.10;99.90;;;;;;5114764;28;20445;-60
2023/10/29 12:50:01;;;;;;;1.73;1.47;;;15.10;99.90;;;;;;5114629;28;20494;-60